sensor_id;sensor_type;location;lat;lon;timestamp;pressure;altitude;pressure_sealevel;temperature;humidity
14067;BME280;7108;42.684;23.350;2023-05-23T00:01:35;95238.91;;;14.06;100.00
14067;BME280;7108;42.684;23.350;2023-05-23T00:04:04;95225.72;;;14.01;100.00
14067;BME280;7108;42.684;23.350;2023-05-23T00:06:29;95228.41;;;13.97;100.00
14067;BME280;7108;42.684;23.350;2023-05-23T00:08:56;95230.34;;;13.97;100.00
14067;BME280;7108;42.684;23.350;2023-05-23T00:11:22;95232.25;;;13.93;100.00
14067;BME280;7108;42.684;23.350;2023-05-23T00:13:51;95233.78;;;13.90;100.00
14067;BME280;7108;42.684;23.350;2023-05-23T00:16:17;95229.88;;;13.84;100.00
14067;BME280;7108;42.684;23.350;2023-05-23T00:18:43;95238.47;;;13.93;100.00
14067;BME280;7108;42.684;23.350;2023-05-23T00:21:10;95233.75;;;13.83;100.00
14067;BME280;7108;42.684;23.350;2023-05-23T00:23:37;95226.75;;;13.79;100.00
14067;BME280;7108;42.684;23.350;2023-05-23T00:26:09;95236.13;;;13.92;100.00
14067;BME280;7108;42.684;23.350;2023-05-23T00:28:35;95225.16;;;13.74;100.00
14067;BME280;7108;42.684;23.350;2023-05-23T00:31:01;95242.16;;;13.68;100.00
14067;BME280;7108;42.684;23.350;2023-05-23T00:33:26;95234.81;;;13.69;100.00
14067;BME280;7108;42.684;23.350;2023-05-23T00:35:54;95236.75;;;13.72;100.00
14067;BME280;7108;42.684;23.350;2023-05-23T00:38:19;95233.28;;;13.71;100.00
14067;BME280;7108;42.684;23.350;2023-05-23T00:40:46;95241.78;;;13.73;100.00
14067;BME280;7108;42.684;23.350;2023-05-23T00:43:12;95230.94;;;13.70;100.00
14067;BME280;7108;42.684;23.350;2023-05-23T00:45:37;95242.59;;;13.77;100.00
14067;BME280;7108;42.684;23.350;2023-05-23T00:48:04;95210.81;;;13.64;100.00
14067;BME280;7108;42.684;23.350;2023-05-23T00:50:31;95221.63;;;13.64;100.00
14067;BME280;7108;42.684;23.350;2023-05-23T00:52:59;95243.34;;;13.74;100.00
14067;BME280;7108;42.684;23.350;2023-05-23T00:55:25;95240.66;;;13.74;100.00
14067;BME280;7108;42.684;23.350;2023-05-23T00:57:52;95231.75;;;13.74;100.00
14067;BME280;7108;42.684;23.350;2023-05-23T01:00:19;95232.13;;;13.75;100.00
14067;BME280;7108;42.684;23.350;2023-05-23T01:02:46;95237.88;;;13.67;100.00
14067;BME280;7108;42.684;23.350;2023-05-23T01:05:14;95247.22;;;13.73;100.00
14067;BME280;7108;42.684;23.350;2023-05-23T01:07:47;95247.59;;;13.72;100.00
14067;BME280;7108;42.684;23.350;2023-05-23T01:10:18;95227.75;;;13.57;100.00
14067;BME280;7108;42.684;23.350;2023-05-23T01:15:41;95246.00;;;13.64;100.00
14067;BME280;7108;42.684;23.350;2023-05-23T01:18:16;95244.41;;;13.59;100.00
14067;BME280;7108;42.684;23.350;2023-05-23T01:20:52;95247.84;;;13.56;100.00
14067;BME280;7108;42.684;23.350;2023-05-23T01:28:49;95246.28;;;13.52;100.00
14067;BME280;7108;42.684;23.350;2023-05-23T01:31:17;95226.16;;;13.49;100.00
14067;BME280;7108;42.684;23.350;2023-05-23T01:33:42;95240.03;;;13.44;100.00
14067;BME280;7108;42.684;23.350;2023-05-23T01:36:12;95234.63;;;13.44;100.00
14067;BME280;7108;42.684;23.350;2023-05-23T01:38:37;95224.50;;;13.38;100.00
14067;BME280;7108;42.684;23.350;2023-05-23T01:41:03;95230.72;;;13.38;100.00
14067;BME280;7108;42.684;23.350;2023-05-23T01:43:28;95219.91;;;13.42;100.00
14067;BME280;7108;42.684;23.350;2023-05-23T01:45:55;95225.72;;;13.40;100.00
14067;BME280;7108;42.684;23.350;2023-05-23T01:48:23;95235.84;;;13.50;100.00
14067;BME280;7108;42.684;23.350;2023-05-23T01:50:51;95207.50;;;13.37;100.00
14067;BME280;7108;42.684;23.350;2023-05-23T01:53:19;95232.75;;;13.52;100.00
14067;BME280;7108;42.684;23.350;2023-05-23T01:55:45;95230.81;;;13.52;100.00
14067;BME280;7108;42.684;23.350;2023-05-23T01:58:11;95232.00;;;13.55;100.00
14067;BME280;7108;42.684;23.350;2023-05-23T02:00:37;95235.84;;;13.50;100.00
14067;BME280;7108;42.684;23.350;2023-05-23T02:03:03;95223.47;;;13.53;100.00
14067;BME280;7108;42.684;23.350;2023-05-23T02:05:28;95218.06;;;13.53;100.00
14067;BME280;7108;42.684;23.350;2023-05-23T02:07:54;95209.13;;;13.45;100.00
14067;BME280;7108;42.684;23.350;2023-05-23T02:10:20;95226.16;;;13.49;100.00
14067;BME280;7108;42.684;23.350;2023-05-23T02:12:45;95224.56;;;13.45;100.00
14067;BME280;7108;42.684;23.350;2023-05-23T02:15:11;95238.97;;;13.56;100.00
14067;BME280;7108;42.684;23.350;2023-05-23T02:17:36;95224.22;;;13.50;100.00
14067;BME280;7108;42.684;23.350;2023-05-23T02:20:03;95227.75;;;13.57;100.00
14067;BME280;7108;42.684;23.350;2023-05-23T02:22:29;95219.97;;;13.52;100.00
14067;BME280;7108;42.684;23.350;2023-05-23T02:24:54;95231.19;;;13.51;100.00
14067;BME280;7108;42.684;23.350;2023-05-23T02:27:20;95232.75;;;13.52;100.00
14067;BME280;7108;42.684;23.350;2023-05-23T02:29:45;95234.69;;;13.55;100.00
14067;BME280;7108;42.684;23.350;2023-05-23T02:32:10;95228.53;;;13.58;100.00
14067;BME280;7108;42.684;23.350;2023-05-23T02:34:36;95225.81;;;13.54;100.00
14067;BME280;7108;42.684;23.350;2023-05-23T02:37:02;95220.41;;;13.54;100.00
14067;BME280;7108;42.684;23.350;2023-05-23T02:39:28;95225.06;;;13.61;100.00
14067;BME280;7108;42.684;23.350;2023-05-23T02:41:53;95214.63;;;13.59;100.00
14067;BME280;7108;42.684;23.350;2023-05-23T02:44:18;95218.09;;;13.60;100.00
14067;BME280;7108;42.684;23.350;2023-05-23T02:46:44;95224.72;;;13.66;100.00
14067;BME280;7108;42.684;23.350;2023-05-23T02:49:10;95216.56;;;13.62;100.00
14067;BME280;7108;42.684;23.350;2023-05-23T02:51:36;95218.16;;;13.67;100.00
14067;BME280;7108;42.684;23.350;2023-05-23T02:54:01;95204.19;;;13.61;100.00
14067;BME280;7108;42.684;23.350;2023-05-23T02:56:27;95220.56;;;13.78;100.00
14067;BME280;7108;42.684;23.350;2023-05-23T02:58:52;95230.59;;;13.78;100.00
14067;BME280;7108;42.684;23.350;2023-05-23T03:01:17;95206.56;;;13.66;100.00
14067;BME280;7108;42.684;23.350;2023-05-23T03:03:44;95226.38;;;13.80;100.00
14067;BME280;7108;42.684;23.350;2023-05-23T03:06:09;95222.50;;;13.81;100.00
14067;BME280;7108;42.684;23.350;2023-05-23T03:08:39;95212.00;;;13.73;100.00
14067;BME280;7108;42.684;23.350;2023-05-23T03:11:04;95220.56;;;13.78;100.00
14067;BME280;7108;42.684;23.350;2023-05-23T03:13:30;95217.84;;;13.82;100.00
14067;BME280;7108;42.684;23.350;2023-05-23T03:15:55;95219.03;;;13.81;100.00
14067;BME280;7108;42.684;23.350;2023-05-23T03:18:20;95209.72;;;13.75;100.00
14067;BME280;7108;42.684;23.350;2023-05-23T03:20:46;95222.09;;;13.76;100.00
14067;BME280;7108;42.684;23.350;2023-05-23T03:23:11;95232.56;;;13.84;100.00
14067;BME280;7108;42.684;23.350;2023-05-23T03:25:37;95222.91;;;13.80;100.00
14067;BME280;7108;42.684;23.350;2023-05-23T03:28:02;95213.94;;;13.73;100.00
14067;BME280;7108;42.684;23.350;2023-05-23T03:30:27;95217.84;;;13.78;100.00
14067;BME280;7108;42.684;23.350;2023-05-23T03:32:53;95217.03;;;13.74;100.00
14067;BME280;7108;42.684;23.350;2023-05-23T03:35:18;95230.66;;;13.85;100.00
14067;BME280;7108;42.684;23.350;2023-05-23T03:37:44;95239.19;;;13.90;100.00
14067;BME280;7108;42.684;23.350;2023-05-23T03:40:09;95240.78;;;13.95;100.00
14067;BME280;7108;42.684;23.350;2023-05-23T03:42:38;95248.09;;;13.87;100.00
14067;BME280;7108;42.684;23.350;2023-05-23T03:45:03;95232.19;;;13.82;100.00
14067;BME280;7108;42.684;23.350;2023-05-23T03:47:29;95243.91;;;13.97;100.00
14067;BME280;7108;42.684;23.350;2023-05-23T03:49:55;95223.34;;;13.89;100.00
14067;BME280;7108;42.684;23.350;2023-05-23T03:52:20;95251.66;;;14.02;100.00
14067;BME280;7108;42.684;23.350;2023-05-23T03:54:46;95231.84;;;13.87;100.00
14067;BME280;7108;42.684;23.350;2023-05-23T03:57:11;95246.91;;;13.85;100.00
14067;BME280;7108;42.684;23.350;2023-05-23T03:59:36;95244.59;;;13.83;100.00
14067;BME280;7108;42.684;23.350;2023-05-23T04:02:02;95246.13;;;13.81;100.00
14067;BME280;7108;42.684;23.350;2023-05-23T04:04:28;95230.56;;;13.74;100.00
14067;BME280;7108;42.684;23.350;2023-05-23T04:06:54;95234.94;;;13.86;100.00
14067;BME280;7108;42.684;23.350;2023-05-23T04:09:20;95249.66;;;13.95;100.00
14067;BME280;7108;42.684;23.350;2023-05-23T04:11:45;95240.31;;;13.82;100.00
14067;BME280;7108;42.684;23.350;2023-05-23T04:14:11;95240.00;;;13.91;100.00
14067;BME280;7108;42.684;23.350;2023-05-23T04:16:37;95249.66;;;13.95;100.00
14067;BME280;7108;42.684;23.350;2023-05-23T04:19:06;95249.69;;;13.99;100.00
14067;BME280;7108;42.684;23.350;2023-05-23T04:21:32;95243.53;;;13.98;100.00
14067;BME280;7108;42.684;23.350;2023-05-23T04:23:58;95250.50;;;13.99;100.00
14067;BME280;7108;42.684;23.350;2023-05-23T04:26:23;95236.91;;;13.92;100.00
14067;BME280;7108;42.684;23.350;2023-05-23T04:28:49;95238.81;;;13.88;100.00
14067;BME280;7108;42.684;23.350;2023-05-23T04:31:18;95250.03;;;13.90;100.00
14067;BME280;7108;42.684;23.350;2023-05-23T04:33:44;95250.03;;;13.87;100.00
14067;BME280;7108;42.684;23.350;2023-05-23T04:36:09;95260.44;;;13.85;100.00
14067;BME280;7108;42.684;23.350;2023-05-23T04:38:35;95265.38;;;13.69;100.00
14067;BME280;7108;42.684;23.350;2023-05-23T04:41:03;95260.72;;;13.70;100.00
14067;BME280;7108;42.684;23.350;2023-05-23T04:43:30;95261.44;;;13.63;100.00
14067;BME280;7108;42.684;23.350;2023-05-23T04:45:58;95259.16;;;13.65;100.00
14067;BME280;7108;42.684;23.350;2023-05-23T04:48:23;95262.59;;;13.62;100.00
14067;BME280;7108;42.684;23.350;2023-05-23T04:50:51;95281.97;;;13.64;100.00
14067;BME280;7108;42.684;23.350;2023-05-23T04:53:17;95275.25;;;13.51;100.00
14067;BME280;7108;42.684;23.350;2023-05-23T04:55:42;95273.38;;;13.59;100.00
14067;BME280;7108;42.684;23.350;2023-05-23T04:58:08;95271.44;;;13.56;100.00
14067;BME280;7108;42.684;23.350;2023-05-23T05:00:34;95258.50;;;13.35;100.00
14067;BME280;7108;42.684;23.350;2023-05-23T05:03:00;95256.97;;;13.38;100.00
14067;BME280;7108;42.684;23.350;2023-05-23T05:05:25;95274.09;;;13.49;100.00
14067;BME280;7108;42.684;23.350;2023-05-23T05:07:51;95274.88;;;13.49;100.00
14067;BME280;7108;42.684;23.350;2023-05-23T05:10:16;95262.78;;;13.36;100.00
14067;BME280;7108;42.684;23.350;2023-05-23T05:12:46;95287.97;;;13.44;100.00
14067;BME280;7108;42.684;23.350;2023-05-23T05:15:14;95277.16;;;13.47;100.00
14067;BME280;7108;42.684;23.350;2023-05-23T05:17:41;95276.78;;;13.49;100.00
14067;BME280;7108;42.684;23.350;2023-05-23T05:20:07;95287.31;;;13.57;100.00
14067;BME280;7108;42.684;23.350;2023-05-23T05:22:38;95286.16;;;13.58;100.00
14067;BME280;7108;42.684;23.350;2023-05-23T05:25:09;95290.34;;;13.52;100.00
14067;BME280;7108;42.684;23.350;2023-05-23T05:27:35;95295.44;;;13.57;100.00
14067;BME280;7108;42.684;23.350;2023-05-23T05:30:07;95278.41;;;13.57;100.00
14067;BME280;7108;42.684;23.350;2023-05-23T05:32:33;95278.81;;;13.55;100.00
14067;BME280;7108;42.684;23.350;2023-05-23T05:34:59;95291.16;;;13.56;100.00
14067;BME280;7108;42.684;23.350;2023-05-23T05:37:25;95289.97;;;13.54;100.00
14067;BME280;7108;42.684;23.350;2023-05-23T05:39:51;95280.34;;;13.53;100.00
14067;BME280;7108;42.684;23.350;2023-05-23T05:42:17;95290.81;;;13.61;100.00
14067;BME280;7108;42.684;23.350;2023-05-23T05:44:43;95277.66;;;13.60;100.00
14067;BME280;7108;42.684;23.350;2023-05-23T05:47:08;95292.84;;;13.74;100.00
14067;BME280;7108;42.684;23.350;2023-05-23T05:49:33;95302.97;;;13.77;100.00
14067;BME280;7108;42.684;23.350;2023-05-23T05:51:59;95283.59;;;13.75;100.00
14067;BME280;7108;42.684;23.350;2023-05-23T05:54:24;95298.28;;;13.71;100.00
14067;BME280;7108;42.684;23.350;2023-05-23T05:56:50;95290.50;;;13.70;100.00
14067;BME280;7108;42.684;23.350;2023-05-23T05:59:15;95287.81;;;13.73;100.00
14067;BME280;7108;42.684;23.350;2023-05-23T06:01:41;95292.94;;;13.81;100.00
14067;BME280;7108;42.684;23.350;2023-05-23T06:04:06;95299.22;;;13.96;100.00
14067;BME280;7108;42.684;23.350;2023-05-23T06:06:32;95284.88;;;13.95;100.00
14067;BME280;7108;42.684;23.350;2023-05-23T06:08:58;95284.19;;;14.02;100.00
14067;BME280;7108;42.684;23.350;2023-05-23T06:11:23;95282.69;;;14.11;100.00
14067;BME280;7108;42.684;23.350;2023-05-23T06:13:48;95297.47;;;14.17;100.00
14067;BME280;7108;42.684;23.350;2023-05-23T06:16:14;95307.81;;;14.08;100.00
14067;BME280;7108;42.684;23.350;2023-05-23T06:18:39;95311.28;;;14.02;100.00
14067;BME280;7108;42.684;23.350;2023-05-23T06:21:05;95293.00;;;13.88;100.00
14067;BME280;7108;42.684;23.350;2023-05-23T06:23:31;95300.00;;;13.96;100.00
14067;BME280;7108;42.684;23.350;2023-05-23T06:25:57;95288.38;;;13.92;100.00
14067;BME280;7108;42.684;23.350;2023-05-23T06:28:23;95299.84;;;13.75;100.00
14067;BME280;7108;42.684;23.350;2023-05-23T06:30:49;95315.63;;;13.67;100.00
14067;BME280;7108;42.684;23.350;2023-05-23T06:33:15;95297.78;;;13.62;100.00
14067;BME280;7108;42.684;23.350;2023-05-23T06:35:40;95297.16;;;13.79;100.00
14067;BME280;7108;42.684;23.350;2023-05-23T06:38:05;95299.63;;;13.94;100.00
14067;BME280;7108;42.684;23.350;2023-05-23T06:40:31;95300.78;;;14.00;100.00
14067;BME280;7108;42.684;23.350;2023-05-23T06:42:56;95311.44;;;14.23;100.00
14067;BME280;7108;42.684;23.350;2023-05-23T06:45:22;95302.91;;;14.21;100.00
14067;BME280;7108;42.684;23.350;2023-05-23T06:47:47;95306.88;;;14.37;100.00
14067;BME280;7108;42.684;23.350;2023-05-23T06:50:13;95296.84;;;14.44;100.00
14067;BME280;7108;42.684;23.350;2023-05-23T06:52:38;95275.94;;;14.45;100.00
14067;BME280;7108;42.684;23.350;2023-05-23T06:55:05;95279.13;;;14.64;100.00
14067;BME280;7108;42.684;23.350;2023-05-23T06:57:31;95281.09;;;14.74;100.00
14067;BME280;7108;42.684;23.350;2023-05-23T06:59:56;95281.88;;;14.75;100.00
14067;BME280;7108;42.684;23.350;2023-05-23T07:02:22;95269.50;;;14.81;100.00
14067;BME280;7108;42.684;23.350;2023-05-23T07:04:47;95274.97;;;14.98;100.00
14067;BME280;7108;42.684;23.350;2023-05-23T07:07:13;95266.44;;;14.89;100.00
14067;BME280;7108;42.684;23.350;2023-05-23T07:09:38;95255.16;;;14.87;100.00
14067;BME280;7108;42.684;23.350;2023-05-23T07:12:05;95269.94;;;14.97;100.00
14067;BME280;7108;42.684;23.350;2023-05-23T07:14:30;95269.19;;;15.17;100.00
14067;BME280;7108;42.684;23.350;2023-05-23T07:16:56;95264.94;;;15.19;100.00
14067;BME280;7108;42.684;23.350;2023-05-23T07:19:21;95247.13;;;15.25;100.00
14067;BME280;7108;42.684;23.350;2023-05-23T07:21:47;95259.16;;;15.31;100.00
14067;BME280;7108;42.684;23.350;2023-05-23T07:24:12;95253.00;;;15.34;100.00
14067;BME280;7108;42.684;23.350;2023-05-23T07:26:38;95243.66;;;15.28;100.00
14067;BME280;7108;42.684;23.350;2023-05-23T07:29:03;95246.78;;;15.37;100.00
14067;BME280;7108;42.684;23.350;2023-05-23T07:31:29;95247.56;;;15.45;100.00
14067;BME280;7108;42.684;23.350;2023-05-23T07:33:55;95250.66;;;15.50;100.00
14067;BME280;7108;42.684;23.350;2023-05-23T07:36:20;95237.44;;;15.45;100.00
14067;BME280;7108;42.684;23.350;2023-05-23T07:38:46;95236.72;;;15.55;100.00
14067;BME280;7108;42.684;23.350;2023-05-23T07:41:12;95239.00;;;15.67;100.00
14067;BME280;7108;42.684;23.350;2023-05-23T07:43:37;95230.88;;;15.67;100.00
14067;BME280;7108;42.684;23.350;2023-05-23T07:46:03;95235.13;;;15.82;100.00
14067;BME280;7108;42.684;23.350;2023-05-23T07:48:28;95229.69;;;15.82;100.00
14067;BME280;7108;42.684;23.350;2023-05-23T07:50:54;95226.56;;;15.87;100.00
14067;BME280;7108;42.684;23.350;2023-05-23T07:53:20;95232.41;;;15.92;100.00
14067;BME280;7108;42.684;23.350;2023-05-23T07:55:46;95228.88;;;15.92;100.00
14067;BME280;7108;42.684;23.350;2023-05-23T07:58:12;95238.59;;;16.03;100.00
14067;BME280;7108;42.684;23.350;2023-05-23T08:00:37;95220.72;;;16.06;100.00
14067;BME280;7108;42.684;23.350;2023-05-23T08:03:03;95214.09;;;16.10;100.00
14067;BME280;7108;42.684;23.350;2023-05-23T08:05:28;95228.84;;;16.23;100.00
14067;BME280;7108;42.684;23.350;2023-05-23T08:07:54;95214.88;;;16.28;100.00
14067;BME280;7108;42.684;23.350;2023-05-23T08:10:19;95212.53;;;16.27;100.00
14067;BME280;7108;42.684;23.350;2023-05-23T08:12:45;95221.81;;;16.40;100.00
14067;BME280;7108;42.684;23.350;2023-05-23T08:15:10;95208.63;;;16.38;100.00
14067;BME280;7108;42.684;23.350;2023-05-23T08:17:36;95219.06;;;16.50;100.00
14067;BME280;7108;42.684;23.350;2023-05-23T08:20:01;95210.50;;;16.55;100.00
14067;BME280;7108;42.684;23.350;2023-05-23T08:22:29;95219.03;;;16.57;100.00
14067;BME280;7108;42.684;23.350;2023-05-23T08:24:54;95221.31;;;16.69;100.00
14067;BME280;7108;42.684;23.350;2023-05-23T08:27:20;95223.59;;;16.77;100.00
14067;BME280;7108;42.684;23.350;2023-05-23T08:29:45;95220.47;;;16.86;100.00
14067;BME280;7108;42.684;23.350;2023-05-23T08:32:11;95214.19;;;16.92;100.00
14067;BME280;7108;42.684;23.350;2023-05-23T08:34:36;95201.72;;;16.98;100.00
14067;BME280;7108;42.684;23.350;2023-05-23T08:37:01;95206.34;;;17.05;100.00
14067;BME280;7108;42.684;23.350;2023-05-23T08:39:27;95191.22;;;17.00;100.00
14067;BME280;7108;42.684;23.350;2023-05-23T08:41:52;95205.91;;;17.13;100.00
14067;BME280;7108;42.684;23.350;2023-05-23T08:44:18;95207.78;;;17.26;100.00
14067;BME280;7108;42.684;23.350;2023-05-23T08:46:45;95192.19;;;17.27;100.00
14067;BME280;7108;42.684;23.350;2023-05-23T08:49:12;95200.34;;;17.30;100.00
14067;BME280;7108;42.684;23.350;2023-05-23T08:51:41;95196.41;;;17.38;100.00
14067;BME280;7108;42.684;23.350;2023-05-23T08:54:07;95201.41;;;17.47;100.00
14067;BME280;7108;42.684;23.350;2023-05-23T08:56:34;95190.00;;;17.59;100.00
14067;BME280;7108;42.684;23.350;2023-05-23T08:58:59;95189.94;;;17.69;100.00
14067;BME280;7108;42.684;23.350;2023-05-23T09:01:26;95186.34;;;17.79;100.00
14067;BME280;7108;42.684;23.350;2023-05-23T09:03:51;95169.56;;;17.80;100.00
14067;BME280;7108;42.684;23.350;2023-05-23T09:06:19;95164.75;;;17.95;100.00
14067;BME280;7108;42.684;23.350;2023-05-23T09:08:45;95156.09;;;18.03;100.00
14067;BME280;7108;42.684;23.350;2023-05-23T09:11:11;95161.16;;;18.05;100.00
14067;BME280;7108;42.684;23.350;2023-05-23T09:13:38;95166.47;;;18.15;100.00
14067;BME280;7108;42.684;23.350;2023-05-23T09:16:05;95171.78;;;18.33;100.00
14067;BME280;7108;42.684;23.350;2023-05-23T09:21:44;95165.22;;;18.56;100.00
14067;BME280;7108;42.684;23.350;2023-05-23T09:24:10;95162.78;;;18.65;100.00
14067;BME280;7108;42.684;23.350;2023-05-23T09:26:36;95151.53;;;18.60;100.00
14067;BME280;7108;42.684;23.350;2023-05-23T09:29:04;95149.50;;;18.67;100.00
14067;BME280;7108;42.684;23.350;2023-05-23T09:31:31;95139.66;;;18.73;100.00
14067;BME280;7108;42.684;23.350;2023-05-23T09:33:57;95149.56;;;18.90;100.00
14067;BME280;7108;42.684;23.350;2023-05-23T09:36:27;95142.81;;;18.98;100.00
14067;BME280;7108;42.684;23.350;2023-05-23T09:39:01;95142.22;;;19.13;100.00
14067;BME280;7108;42.684;23.350;2023-05-23T09:41:29;95148.38;;;19.21;100.00
14067;BME280;7108;42.684;23.350;2023-05-23T09:43:57;95138.09;;;19.28;100.00
14067;BME280;7108;42.684;23.350;2023-05-23T09:46:27;95134.56;;;19.28;100.00
14067;BME280;7108;42.684;23.350;2023-05-23T09:48:53;95124.66;;;19.37;100.00
14067;BME280;7108;42.684;23.350;2023-05-23T09:51:20;95134.47;;;19.58;100.00
14067;BME280;7108;42.684;23.350;2023-05-23T09:53:46;95116.75;;;19.66;100.00
14067;BME280;7108;42.684;23.350;2023-05-23T09:56:12;95120.38;;;19.82;100.00
14067;BME280;7108;42.684;23.350;2023-05-23T09:58:46;95117.81;;;19.94;100.00
14067;BME280;7108;42.684;23.350;2023-05-23T10:01:12;95122.19;;;20.11;100.00
14067;BME280;7108;42.684;23.350;2023-05-23T10:03:45;95113.16;;;20.14;100.00
14067;BME280;7108;42.684;23.350;2023-05-23T10:06:43;95127.59;;;20.34;100.00
14067;BME280;7108;42.684;23.350;2023-05-23T10:09:12;95107.72;;;20.30;96.93
14067;BME280;7108;42.684;23.350;2023-05-23T10:14:51;95108.69;;;20.59;100.00
14067;BME280;7108;42.684;23.350;2023-05-23T10:17:49;95112.31;;;20.72;100.00
14067;BME280;7108;42.684;23.350;2023-05-23T10:20:18;95086.34;;;20.80;100.00
14067;BME280;7108;42.684;23.350;2023-05-23T10:22:47;95095.28;;;21.00;97.09
14067;BME280;7108;42.684;23.350;2023-05-23T10:25:13;95094.91;;;20.98;89.32
14067;BME280;7108;42.684;23.350;2023-05-23T10:27:39;95108.03;;;21.06;83.76
14067;BME280;7108;42.684;23.350;2023-05-23T10:30:06;95100.16;;;21.08;77.04
14067;BME280;7108;42.684;23.350;2023-05-23T10:32:33;95096.16;;;21.12;81.19
14067;BME280;7108;42.684;23.350;2023-05-23T10:38:30;95092.41;;;21.38;80.54
14067;BME280;7108;42.684;23.350;2023-05-23T10:43:35;95088.13;;;21.53;89.96
14067;BME280;7108;42.684;23.350;2023-05-23T10:46:08;95075.00;;;21.61;83.28
14067;BME280;7108;42.684;23.350;2023-05-23T10:48:35;95076.78;;;21.67;80.19
14067;BME280;7108;42.684;23.350;2023-05-23T10:51:06;95082.69;;;21.81;85.84
14067;BME280;7108;42.684;23.350;2023-05-23T10:53:36;95082.06;;;21.90;91.18
14067;BME280;7108;42.684;23.350;2023-05-23T10:56:06;95075.53;;;22.00;85.91
14067;BME280;7108;42.684;23.350;2023-05-23T10:58:33;95071.81;;;22.06;84.21
14067;BME280;7108;42.684;23.350;2023-05-23T11:01:12;95071.72;;;22.10;83.41
14067;BME280;7108;42.684;23.350;2023-05-23T11:06:31;95076.78;;;22.24;89.24
14067;BME280;7108;42.684;23.350;2023-05-23T11:09:03;95061.44;;;22.26;82.22
14067;BME280;7108;42.684;23.350;2023-05-23T11:14:13;95071.06;;;22.46;74.87
14067;BME280;7108;42.684;23.350;2023-05-23T11:16:40;95053.16;;;22.54;75.65
14067;BME280;7108;42.684;23.350;2023-05-23T11:19:24;95063.72;;;22.56;78.67
14067;BME280;7108;42.684;23.350;2023-05-23T11:24:21;95052.63;;;22.72;68.79
14067;BME280;7108;42.684;23.350;2023-05-23T11:26:59;95048.13;;;22.78;80.04
14067;BME280;7108;42.684;23.350;2023-05-23T11:29:28;95049.78;;;22.75;71.75
14067;BME280;7108;42.684;23.350;2023-05-23T11:31:54;95047.38;;;22.77;64.33
14067;BME280;7108;42.684;23.350;2023-05-23T11:34:21;95050.22;;;22.86;69.49
14067;BME280;7108;42.684;23.350;2023-05-23T11:36:52;95051.22;;;22.92;65.25
14067;BME280;7108;42.684;23.350;2023-05-23T11:39:18;95040.44;;;22.98;57.38
14067;BME280;7108;42.684;23.350;2023-05-23T11:41:57;95044.53;;;23.06;67.80
14067;BME280;7108;42.684;23.350;2023-05-23T11:44:22;95044.31;;;23.13;71.36
14067;BME280;7108;42.684;23.350;2023-05-23T11:47:01;95031.13;;;23.20;64.93
14067;BME280;7108;42.684;23.350;2023-05-23T11:49:30;95041.56;;;23.13;57.10
14067;BME280;7108;42.684;23.350;2023-05-23T11:51:57;95046.81;;;22.95;58.82
14067;BME280;7108;42.684;23.350;2023-05-23T11:54:24;95038.47;;;22.86;60.41
14067;BME280;7108;42.684;23.350;2023-05-23T11:56:51;95035.94;;;22.91;63.61
14067;BME280;7108;42.684;23.350;2023-05-23T11:59:16;95020.78;;;22.87;66.53
14067;BME280;7108;42.684;23.350;2023-05-23T12:01:42;95028.78;;;22.94;66.40
14067;BME280;7108;42.684;23.350;2023-05-23T12:04:11;95020.44;;;22.85;59.48
14067;BME280;7108;42.684;23.350;2023-05-23T12:06:40;95024.06;;;22.94;68.48
14067;BME280;7108;42.684;23.350;2023-05-23T12:09:06;95025.72;;;22.92;60.17
14067;BME280;7108;42.684;23.350;2023-05-23T12:11:33;95032.97;;;22.86;56.50
14067;BME280;7108;42.684;23.350;2023-05-23T12:13:59;95019.91;;;22.77;56.73
14067;BME280;7108;42.684;23.350;2023-05-23T12:16:27;95017.91;;;22.78;60.61
14067;BME280;7108;42.684;23.350;2023-05-23T12:18:53;95007.69;;;22.78;60.41
14067;BME280;7108;42.684;23.350;2023-05-23T12:21:19;95004.97;;;22.78;60.16
14067;BME280;7108;42.684;23.350;2023-05-23T12:23:45;95006.59;;;22.88;59.96
14067;BME280;7108;42.684;23.350;2023-05-23T12:26:10;95000.56;;;22.81;60.71
14067;BME280;7108;42.684;23.350;2023-05-23T12:28:38;94998.03;;;22.74;54.62
14067;BME280;7108;42.684;23.350;2023-05-23T12:31:30;94992.75;;;22.67;57.74
14067;BME280;7108;42.684;23.350;2023-05-23T12:33:57;94990.09;;;22.63;57.49
14067;BME280;7108;42.684;23.350;2023-05-23T12:36:24;94990.44;;;22.65;56.96
14067;BME280;7108;42.684;23.350;2023-05-23T12:38:50;94994.38;;;22.64;62.21
14067;BME280;7108;42.684;23.350;2023-05-23T12:41:17;94974.06;;;22.49;67.60
14067;BME280;7108;42.684;23.350;2023-05-23T12:43:53;94991.09;;;22.44;50.96
14067;BME280;7108;42.684;23.350;2023-05-23T12:46:23;94986.69;;;22.35;47.92
14067;BME280;7108;42.684;23.350;2023-05-23T12:48:49;94980.84;;;22.33;45.36
14067;BME280;7108;42.684;23.350;2023-05-23T12:51:15;94977.06;;;22.43;48.62
14067;BME280;7108;42.684;23.350;2023-05-23T12:53:41;94980.44;;;22.46;47.42
14067;BME280;7108;42.684;23.350;2023-05-23T12:56:07;94978.16;;;22.45;47.58
14067;BME280;7108;42.684;23.350;2023-05-23T12:58:33;94972.53;;;22.48;45.27
14067;BME280;7108;42.684;23.350;2023-05-23T13:01:00;94971.31;;;22.49;46.30
14067;BME280;7108;42.684;23.350;2023-05-23T13:03:25;94965.63;;;22.44;47.26
14067;BME280;7108;42.684;23.350;2023-05-23T13:05:51;94960.03;;;22.47;43.32
14067;BME280;7108;42.684;23.350;2023-05-23T13:08:18;94966.94;;;22.52;45.08
14067;BME280;7108;42.684;23.350;2023-05-23T13:10:44;94962.09;;;22.56;43.94
14067;BME280;7108;42.684;23.350;2023-05-23T13:13:10;94969.91;;;22.57;43.80
14067;BME280;7108;42.684;23.350;2023-05-23T13:15:35;94944.75;;;22.46;44.08
14067;BME280;7108;42.684;23.350;2023-05-23T13:18:01;94953.44;;;22.45;47.71
14067;BME280;7108;42.684;23.350;2023-05-23T13:20:27;94946.94;;;22.39;48.04